sensor_id;sensor_type;location;lat;lon;timestamp;P1;durP1;ratioP1;P2;durP2;ratioP2
25497;SDS011;13406;53.380;7.226;2023-04-25T00:01:59;12.83;;;3.53;;
25497;SDS011;13406;53.380;7.226;2023-04-25T00:04:25;13.47;;;3.33;;
25497;SDS011;13406;53.380;7.226;2023-04-25T00:06:53;12.30;;;3.30;;
25497;SDS011;13406;53.380;7.226;2023-04-25T00:09:19;10.60;;;4.13;;
25497;SDS011;13406;53.380;7.226;2023-04-25T00:11:44;11.23;;;3.03;;
25497;SDS011;13406;53.380;7.226;2023-04-25T00:14:10;14.27;;;2.57;;
25497;SDS011;13406;53.380;7.226;2023-04-25T00:16:35;10.13;;;2.87;;
25497;SDS011;13406;53.380;7.226;2023-04-25T00:19:01;16.50;;;3.10;;
25497;SDS011;13406;53.380;7.226;2023-04-25T00:21:27;11.50;;;2.80;;
25497;SDS011;13406;53.380;7.226;2023-04-25T00:23:53;9.03;;;2.50;;
25497;SDS011;13406;53.380;7.226;2023-04-25T00:26:19;7.17;;;3.43;;
25497;SDS011;13406;53.380;7.226;2023-04-25T00:28:46;11.30;;;3.07;;
25497;SDS011;13406;53.380;7.226;2023-04-25T00:31:11;9.33;;;3.10;;
25497;SDS011;13406;53.380;7.226;2023-04-25T00:33:37;15.63;;;4.90;;
25497;SDS011;13406;53.380;7.226;2023-04-25T00:36:02;12.43;;;3.30;;
25497;SDS011;13406;53.380;7.226;2023-04-25T00:38:28;8.63;;;2.70;;
25497;SDS011;13406;53.380;7.226;2023-04-25T00:40:53;7.13;;;2.27;;
25497;SDS011;13406;53.380;7.226;2023-04-25T00:43:20;10.70;;;3.23;;
25497;SDS011;13406;53.380;7.226;2023-04-25T00:45:46;7.20;;;2.47;;
25497;SDS011;13406;53.380;7.226;2023-04-25T00:48:16;6.90;;;2.30;;
25497;SDS011;13406;53.380;7.226;2023-04-25T00:50:43;10.37;;;3.03;;
25497;SDS011;13406;53.380;7.226;2023-04-25T00:53:16;14.90;;;3.10;;
25497;SDS011;13406;53.380;7.226;2023-04-25T00:55:42;7.50;;;2.47;;
25497;SDS011;13406;53.380;7.226;2023-04-25T00:58:07;9.73;;;3.20;;
25497;SDS011;13406;53.380;7.226;2023-04-25T01:00:33;8.43;;;2.63;;
25497;SDS011;13406;53.380;7.226;2023-04-25T01:02:58;18.67;;;2.83;;
25497;SDS011;13406;53.380;7.226;2023-04-25T01:05:25;10.10;;;2.90;;
25497;SDS011;13406;53.380;7.226;2023-04-25T01:07:50;9.90;;;2.80;;
25497;SDS011;13406;53.380;7.226;2023-04-25T01:10:16;12.20;;;2.70;;
25497;SDS011;13406;53.380;7.226;2023-04-25T01:12:41;11.47;;;3.03;;
25497;SDS011;13406;53.380;7.226;2023-04-25T01:15:07;10.40;;;3.47;;
25497;SDS011;13406;53.380;7.226;2023-04-25T01:17:33;10.93;;;2.83;;
25497;SDS011;13406;53.380;7.226;2023-04-25T01:20:01;11.00;;;3.13;;
25497;SDS011;13406;53.380;7.226;2023-04-25T01:22:28;14.20;;;3.60;;
25497;SDS011;13406;53.380;7.226;2023-04-25T01:24:54;18.83;;;3.60;;
25497;SDS011;13406;53.380;7.226;2023-04-25T01:27:20;8.77;;;2.63;;
25497;SDS011;13406;53.380;7.226;2023-04-25T01:29:46;10.93;;;2.90;;
25497;SDS011;13406;53.380;7.226;2023-04-25T01:32:13;6.53;;;2.40;;
25497;SDS011;13406;53.380;7.226;2023-04-25T01:34:38;9.27;;;2.40;;
25497;SDS011;13406;53.380;7.226;2023-04-25T01:37:04;10.90;;;2.70;;
25497;SDS011;13406;53.380;7.226;2023-04-25T01:39:29;11.97;;;2.50;;
25497;SDS011;13406;53.380;7.226;2023-04-25T01:41:55;11.37;;;2.20;;
25497;SDS011;13406;53.380;7.226;2023-04-25T01:44:21;12.50;;;2.47;;
25497;SDS011;13406;53.380;7.226;2023-04-25T01:46:46;9.30;;;2.50;;
25497;SDS011;13406;53.380;7.226;2023-04-25T01:49:12;8.30;;;2.57;;
25497;SDS011;13406;53.380;7.226;2023-04-25T01:51:37;8.77;;;2.40;;
25497;SDS011;13406;53.380;7.226;2023-04-25T01:54:03;5.20;;;2.10;;
25497;SDS011;13406;53.380;7.226;2023-04-25T01:56:32;10.87;;;2.97;;
25497;SDS011;13406;53.380;7.226;2023-04-25T01:58:58;4.47;;;1.80;;
25497;SDS011;13406;53.380;7.226;2023-04-25T02:01:24;8.37;;;1.90;;
25497;SDS011;13406;53.380;7.226;2023-04-25T02:03:50;7.90;;;2.20;;
25497;SDS011;13406;53.380;7.226;2023-04-25T02:06:15;6.27;;;2.67;;
25497;SDS011;13406;53.380;7.226;2023-04-25T02:08:41;7.90;;;2.53;;
25497;SDS011;13406;53.380;7.226;2023-04-25T02:11:06;8.27;;;2.13;;
25497;SDS011;13406;53.380;7.226;2023-04-25T02:13:31;8.50;;;2.00;;
25497;SDS011;13406;53.380;7.226;2023-04-25T02:15:57;10.07;;;2.40;;
25497;SDS011;13406;53.380;7.226;2023-04-25T02:18:22;5.70;;;1.93;;
25497;SDS011;13406;53.380;7.226;2023-04-25T02:20:48;4.07;;;1.97;;
25497;SDS011;13406;53.380;7.226;2023-04-25T02:23:13;5.87;;;1.90;;
25497;SDS011;13406;53.380;7.226;2023-04-25T02:25:40;8.70;;;2.20;;
25497;SDS011;13406;53.380;7.226;2023-04-25T02:28:05;12.20;;;2.40;;
25497;SDS011;13406;53.380;7.226;2023-04-25T02:30:31;7.03;;;1.80;;
25497;SDS011;13406;53.380;7.226;2023-04-25T02:32:56;6.73;;;2.00;;
25497;SDS011;13406;53.380;7.226;2023-04-25T02:35:22;13.77;;;2.10;;
25497;SDS011;13406;53.380;7.226;2023-04-25T02:37:47;10.80;;;2.87;;
25497;SDS011;13406;53.380;7.226;2023-04-25T02:40:13;7.97;;;2.20;;
25497;SDS011;13406;53.380;7.226;2023-04-25T02:42:38;8.40;;;2.00;;
25497;SDS011;13406;53.380;7.226;2023-04-25T02:45:04;8.07;;;2.30;;
25497;SDS011;13406;53.380;7.226;2023-04-25T02:47:29;14.67;;;3.40;;
25497;SDS011;13406;53.380;7.226;2023-04-25T02:49:56;9.83;;;2.83;;
25497;SDS011;13406;53.380;7.226;2023-04-25T02:52:21;8.50;;;1.97;;
25497;SDS011;13406;53.380;7.226;2023-04-25T02:54:46;5.87;;;1.50;;
25497;SDS011;13406;53.380;7.226;2023-04-25T02:57:12;6.13;;;1.60;;
25497;SDS011;13406;53.380;7.226;2023-04-25T02:59:37;5.03;;;2.03;;
25497;SDS011;13406;53.380;7.226;2023-04-25T03:02:03;7.43;;;2.07;;
25497;SDS011;13406;53.380;7.226;2023-04-25T03:04:28;6.60;;;1.77;;
25497;SDS011;13406;53.380;7.226;2023-04-25T03:06:54;9.80;;;2.27;;
25497;SDS011;13406;53.380;7.226;2023-04-25T03:09:20;9.03;;;2.43;;
25497;SDS011;13406;53.380;7.226;2023-04-25T03:11:45;3.13;;;1.30;;
25497;SDS011;13406;53.380;7.226;2023-04-25T03:14:11;6.10;;;2.20;;
25497;SDS011;13406;53.380;7.226;2023-04-25T03:16:37;7.27;;;2.23;;
25497;SDS011;13406;53.380;7.226;2023-04-25T03:19:02;7.60;;;1.80;;
25497;SDS011;13406;53.380;7.226;2023-04-25T03:21:29;4.20;;;1.70;;
25497;SDS011;13406;53.380;7.226;2023-04-25T03:23:58;6.80;;;1.87;;
25497;SDS011;13406;53.380;7.226;2023-04-25T03:26:24;10.00;;;2.40;;
25497;SDS011;13406;53.380;7.226;2023-04-25T03:28:49;5.67;;;1.60;;
25497;SDS011;13406;53.380;7.226;2023-04-25T03:31:15;9.93;;;1.67;;
25497;SDS011;13406;53.380;7.226;2023-04-25T03:33:40;7.80;;;2.07;;
25497;SDS011;13406;53.380;7.226;2023-04-25T03:36:06;6.30;;;1.77;;
25497;SDS011;13406;53.380;7.226;2023-04-25T03:38:31;6.90;;;2.10;;
25497;SDS011;13406;53.380;7.226;2023-04-25T03:40:57;5.90;;;2.07;;
25497;SDS011;13406;53.380;7.226;2023-04-25T03:43:22;10.43;;;2.53;;
25497;SDS011;13406;53.380;7.226;2023-04-25T03:45:48;10.83;;;2.20;;
25497;SDS011;13406;53.380;7.226;2023-04-25T03:48:13;7.20;;;2.30;;
25497;SDS011;13406;53.380;7.226;2023-04-25T03:50:39;10.97;;;2.50;;
25497;SDS011;13406;53.380;7.226;2023-04-25T03:53:04;9.17;;;2.27;;
25497;SDS011;13406;53.380;7.226;2023-04-25T03:55:30;8.27;;;2.20;;
25497;SDS011;13406;53.380;7.226;2023-04-25T03:57:56;6.80;;;2.17;;
25497;SDS011;13406;53.380;7.226;2023-04-25T04:00:23;12.00;;;2.13;;
25497;SDS011;13406;53.380;7.226;2023-04-25T04:02:49;8.20;;;2.10;;
25497;SDS011;13406;53.380;7.226;2023-04-25T04:05:14;5.27;;;1.93;;
25497;SDS011;13406;53.380;7.226;2023-04-25T04:07:39;7.63;;;2.00;;
25497;SDS011;13406;53.380;7.226;2023-04-25T04:10:07;11.07;;;2.67;;
25497;SDS011;13406;53.380;7.226;2023-04-25T04:12:33;7.10;;;2.50;;
25497;SDS011;13406;53.380;7.226;2023-04-25T04:14:59;5.50;;;1.70;;
25497;SDS011;13406;53.380;7.226;2023-04-25T04:17:24;5.20;;;2.03;;
25497;SDS011;13406;53.380;7.226;2023-04-25T04:19:50;7.60;;;2.07;;
25497;SDS011;13406;53.380;7.226;2023-04-25T04:22:15;7.50;;;1.90;;
25497;SDS011;13406;53.380;7.226;2023-04-25T04:24:41;6.73;;;1.40;;
25497;SDS011;13406;53.380;7.226;2023-04-25T04:27:09;9.10;;;1.90;;
25497;SDS011;13406;53.380;7.226;2023-04-25T04:29:34;4.67;;;1.47;;
25497;SDS011;13406;53.380;7.226;2023-04-25T04:32:01;9.40;;;2.20;;
25497;SDS011;13406;53.380;7.226;2023-04-25T04:34:28;7.73;;;1.97;;
25497;SDS011;13406;53.380;7.226;2023-04-25T04:36:54;8.27;;;2.07;;
25497;SDS011;13406;53.380;7.226;2023-04-25T04:39:20;5.20;;;1.83;;
25497;SDS011;13406;53.380;7.226;2023-04-25T04:41:46;5.70;;;2.00;;
25497;SDS011;13406;53.380;7.226;2023-04-25T04:44:11;4.67;;;1.60;;
25497;SDS011;13406;53.380;7.226;2023-04-25T04:46:37;8.73;;;2.53;;
25497;SDS011;13406;53.380;7.226;2023-04-25T04:49:08;6.27;;;2.57;;
25497;SDS011;13406;53.380;7.226;2023-04-25T04:51:34;8.07;;;1.87;;
25497;SDS011;13406;53.380;7.226;2023-04-25T04:53:59;8.23;;;2.00;;
25497;SDS011;13406;53.380;7.226;2023-04-25T04:56:27;19.30;;;3.40;;
25497;SDS011;13406;53.380;7.226;2023-04-25T04:58:56;8.33;;;1.90;;
25497;SDS011;13406;53.380;7.226;2023-04-25T05:01:22;4.30;;;1.60;;
25497;SDS011;13406;53.380;7.226;2023-04-25T05:03:48;6.00;;;1.60;;
25497;SDS011;13406;53.380;7.226;2023-04-25T05:06:14;7.53;;;1.97;;
25497;SDS011;13406;53.380;7.226;2023-04-25T05:08:40;5.90;;;1.97;;
25497;SDS011;13406;53.380;7.226;2023-04-25T05:11:05;6.17;;;1.80;;
25497;SDS011;13406;53.380;7.226;2023-04-25T05:13:31;5.50;;;2.10;;
25497;SDS011;13406;53.380;7.226;2023-04-25T05:15:56;6.50;;;1.73;;
25497;SDS011;13406;53.380;7.226;2023-04-25T05:18:21;8.90;;;1.80;;
25497;SDS011;13406;53.380;7.226;2023-04-25T05:20:47;6.07;;;2.50;;
25497;SDS011;13406;53.380;7.226;2023-04-25T05:23:12;6.47;;;1.57;;
25497;SDS011;13406;53.380;7.226;2023-04-25T05:25:38;6.23;;;1.83;;
25497;SDS011;13406;53.380;7.226;2023-04-25T05:28:03;13.27;;;1.53;;
25497;SDS011;13406;53.380;7.226;2023-04-25T05:30:30;5.83;;;1.60;;
25497;SDS011;13406;53.380;7.226;2023-04-25T05:32:55;6.27;;;1.60;;
25497;SDS011;13406;53.380;7.226;2023-04-25T05:35:20;10.63;;;1.47;;
25497;SDS011;13406;53.380;7.226;2023-04-25T05:37:46;5.87;;;1.73;;
25497;SDS011;13406;53.380;7.226;2023-04-25T05:40:11;5.53;;;1.70;;
25497;SDS011;13406;53.380;7.226;2023-04-25T05:42:37;5.50;;;1.70;;
25497;SDS011;13406;53.380;7.226;2023-04-25T05:45:03;7.03;;;1.80;;
25497;SDS011;13406;53.380;7.226;2023-04-25T05:47:29;6.87;;;1.80;;
25497;SDS011;13406;53.380;7.226;2023-04-25T05:49:54;6.10;;;1.67;;
25497;SDS011;13406;53.380;7.226;2023-04-25T05:52:20;8.10;;;1.87;;
25497;SDS011;13406;53.380;7.226;2023-04-25T05:54:45;10.17;;;1.97;;
25497;SDS011;13406;53.380;7.226;2023-04-25T05:57:24;10.43;;;1.97;;
25497;SDS011;13406;53.380;7.226;2023-04-25T05:59:50;6.97;;;1.60;;
25497;SDS011;13406;53.380;7.226;2023-04-25T06:02:17;3.90;;;1.60;;
25497;SDS011;13406;53.380;7.226;2023-04-25T06:04:43;9.30;;;1.33;;
25497;SDS011;13406;53.380;7.226;2023-04-25T06:07:08;13.60;;;2.33;;
25497;SDS011;13406;53.380;7.226;2023-04-25T06:09:34;5.70;;;1.40;;
25497;SDS011;13406;53.380;7.226;2023-04-25T06:11:59;6.13;;;1.50;;
25497;SDS011;13406;53.380;7.226;2023-04-25T06:14:26;7.33;;;2.03;;
25497;SDS011;13406;53.380;7.226;2023-04-25T06:16:51;6.73;;;1.57;;
25497;SDS011;13406;53.380;7.226;2023-04-25T06:19:17;5.63;;;1.80;;
25497;SDS011;13406;53.380;7.226;2023-04-25T06:21:43;3.77;;;1.20;;
25497;SDS011;13406;53.380;7.226;2023-04-25T06:24:09;4.60;;;1.40;;
25497;SDS011;13406;53.380;7.226;2023-04-25T06:26:34;3.83;;;1.20;;
25497;SDS011;13406;53.380;7.226;2023-04-25T06:29:00;5.30;;;1.37;;
25497;SDS011;13406;53.380;7.226;2023-04-25T06:31:25;4.00;;;1.37;;
25497;SDS011;13406;53.380;7.226;2023-04-25T06:33:51;4.60;;;1.20;;
25497;SDS011;13406;53.380;7.226;2023-04-25T06:36:19;4.67;;;1.23;;
25497;SDS011;13406;53.380;7.226;2023-04-25T06:38:49;5.00;;;1.20;;
25497;SDS011;13406;53.380;7.226;2023-04-25T06:41:18;6.30;;;1.73;;
25497;SDS011;13406;53.380;7.226;2023-04-25T06:43:43;6.70;;;1.90;;
25497;SDS011;13406;53.380;7.226;2023-04-25T06:46:09;6.20;;;1.50;;
25497;SDS011;13406;53.380;7.226;2023-04-25T06:48:35;9.90;;;1.90;;
25497;SDS011;13406;53.380;7.226;2023-04-25T06:51:00;5.37;;;1.60;;
25497;SDS011;13406;53.380;7.226;2023-04-25T06:53:26;7.57;;;1.87;;
25497;SDS011;13406;53.380;7.226;2023-04-25T06:55:51;9.10;;;2.20;;
25497;SDS011;13406;53.380;7.226;2023-04-25T06:58:17;7.03;;;1.80;;
25497;SDS011;13406;53.380;7.226;2023-04-25T07:00:42;5.80;;;2.00;;
25497;SDS011;13406;53.380;7.226;2023-04-25T07:03:08;5.53;;;1.87;;
25497;SDS011;13406;53.380;7.226;2023-04-25T07:05:33;8.00;;;1.70;;
25497;SDS011;13406;53.380;7.226;2023-04-25T07:07:59;4.80;;;1.80;;
25497;SDS011;13406;53.380;7.226;2023-04-25T07:10:25;4.87;;;1.50;;
25497;SDS011;13406;53.380;7.226;2023-04-25T07:12:50;5.63;;;1.77;;
25497;SDS011;13406;53.380;7.226;2023-04-25T07:15:16;11.20;;;2.30;;
25497;SDS011;13406;53.380;7.226;2023-04-25T07:17:41;7.50;;;1.53;;
25497;SDS011;13406;53.380;7.226;2023-04-25T07:20:07;9.30;;;3.60;;
25497;SDS011;13406;53.380;7.226;2023-04-25T07:22:34;8.03;;;1.80;;
25497;SDS011;13406;53.380;7.226;2023-04-25T07:25:00;8.33;;;1.70;;
25497;SDS011;13406;53.380;7.226;2023-04-25T07:27:25;9.50;;;2.40;;
25497;SDS011;13406;53.380;7.226;2023-04-25T07:29:51;4.80;;;1.67;;
25497;SDS011;13406;53.380;7.226;2023-04-25T07:32:16;4.47;;;1.27;;
25497;SDS011;13406;53.380;7.226;2023-04-25T07:34:41;4.67;;;1.33;;
25497;SDS011;13406;53.380;7.226;2023-04-25T07:37:07;8.87;;;1.60;;
25497;SDS011;13406;53.380;7.226;2023-04-25T07:39:32;4.87;;;1.70;;
25497;SDS011;13406;53.380;7.226;2023-04-25T07:41:58;7.80;;;1.40;;
25497;SDS011;13406;53.380;7.226;2023-04-25T07:44:23;9.30;;;1.80;;
25497;SDS011;13406;53.380;7.226;2023-04-25T07:46:50;6.47;;;1.33;;
25497;SDS011;13406;53.380;7.226;2023-04-25T07:49:16;6.40;;;1.40;;
25497;SDS011;13406;53.380;7.226;2023-04-25T07:51:41;6.90;;;1.70;;
25497;SDS011;13406;53.380;7.226;2023-04-25T07:54:08;8.00;;;1.47;;
25497;SDS011;13406;53.380;7.226;2023-04-25T07:56:34;6.50;;;1.47;;
25497;SDS011;13406;53.380;7.226;2023-04-25T07:59:00;5.53;;;1.13;;
25497;SDS011;13406;53.380;7.226;2023-04-25T08:01:25;7.57;;;1.47;;
25497;SDS011;13406;53.380;7.226;2023-04-25T08:03:51;28.97;;;2.23;;
25497;SDS011;13406;53.380;7.226;2023-04-25T08:06:17;6.50;;;1.70;;
25497;SDS011;13406;53.380;7.226;2023-04-25T08:08:43;3.57;;;1.33;;
25497;SDS011;13406;53.380;7.226;2023-04-25T08:11:08;4.87;;;1.40;;
25497;SDS011;13406;53.380;7.226;2023-04-25T08:13:34;6.47;;;1.10;;
25497;SDS011;13406;53.380;7.226;2023-04-25T08:15:59;5.07;;;1.43;;
25497;SDS011;13406;53.380;7.226;2023-04-25T08:18:25;6.30;;;1.57;;
25497;SDS011;13406;53.380;7.226;2023-04-25T08:20:50;6.97;;;1.93;;
25497;SDS011;13406;53.380;7.226;2023-04-25T08:23:15;8.23;;;2.27;;
25497;SDS011;13406;53.380;7.226;2023-04-25T08:25:41;5.43;;;1.50;;
25497;SDS011;13406;53.380;7.226;2023-04-25T08:28:06;6.93;;;1.73;;
25497;SDS011;13406;53.380;7.226;2023-04-25T08:30:32;5.03;;;1.50;;
25497;SDS011;13406;53.380;7.226;2023-04-25T08:32:57;8.30;;;1.53;;
25497;SDS011;13406;53.380;7.226;2023-04-25T08:35:23;4.77;;;1.73;;
25497;SDS011;13406;53.380;7.226;2023-04-25T08:37:48;7.83;;;1.50;;
25497;SDS011;13406;53.380;7.226;2023-04-25T08:40:14;3.90;;;1.47;;
25497;SDS011;13406;53.380;7.226;2023-04-25T08:42:41;3.53;;;1.60;;
25497;SDS011;13406;53.380;7.226;2023-04-25T08:45:07;9.40;;;1.47;;
25497;SDS011;13406;53.380;7.226;2023-04-25T08:47:34;8.40;;;1.77;;
25497;SDS011;13406;53.380;7.226;2023-04-25T08:50:02;8.10;;;1.50;;
25497;SDS011;13406;53.380;7.226;2023-04-25T08:52:30;7.67;;;1.37;;
25497;SDS011;13406;53.380;7.226;2023-04-25T08:55:01;11.40;;;2.17;;
25497;SDS011;13406;53.380;7.226;2023-04-25T08:57:27;5.70;;;1.37;;
25497;SDS011;13406;53.380;7.226;2023-04-25T08:59:54;4.50;;;1.43;;
25497;SDS011;13406;53.380;7.226;2023-04-25T09:02:21;6.40;;;1.90;;
25497;SDS011;13406;53.380;7.226;2023-04-25T09:04:47;13.40;;;1.87;;
25497;SDS011;13406;53.380;7.226;2023-04-25T09:07:13;4.77;;;2.10;;
25497;SDS011;13406;53.380;7.226;2023-04-25T09:09:43;4.97;;;1.60;;
25497;SDS011;13406;53.380;7.226;2023-04-25T09:12:08;6.70;;;1.90;;
25497;SDS011;13406;53.380;7.226;2023-04-25T09:14:34;6.53;;;1.60;;
25497;SDS011;13406;53.380;7.226;2023-04-25T09:17:01;6.50;;;1.60;;
25497;SDS011;13406;53.380;7.226;2023-04-25T09:19:30;6.23;;;1.60;;
25497;SDS011;13406;53.380;7.226;2023-04-25T09:21:58;5.77;;;1.60;;
25497;SDS011;13406;53.380;7.226;2023-04-25T09:24:43;11.50;;;1.80;;
25497;SDS011;13406;53.380;7.226;2023-04-25T09:27:12;9.77;;;1.70;;
25497;SDS011;13406;53.380;7.226;2023-04-25T09:29:42;12.17;;;2.20;;
25497;SDS011;13406;53.380;7.226;2023-04-25T09:32:22;5.90;;;1.53;;
25497;SDS011;13406;53.380;7.226;2023-04-25T09:34:49;5.80;;;1.53;;
25497;SDS011;13406;53.380;7.226;2023-04-25T09:37:28;6.20;;;1.60;;
25497;SDS011;13406;53.380;7.226;2023-04-25T09:39:57;5.53;;;1.30;;
25497;SDS011;13406;53.380;7.226;2023-04-25T09:42:26;8.03;;;1.80;;
25497;SDS011;13406;53.380;7.226;2023-04-25T09:44:54;5.40;;;1.67;;
25497;SDS011;13406;53.380;7.226;2023-04-25T09:47:21;7.13;;;1.57;;
25497;SDS011;13406;53.380;7.226;2023-04-25T09:49:48;7.87;;;1.83;;
25497;SDS011;13406;53.380;7.226;2023-04-25T09:52:19;7.00;;;1.90;;
25497;SDS011;13406;53.380;7.226;2023-04-25T09:54:46;10.20;;;3.00;;
25497;SDS011;13406;53.380;7.226;2023-04-25T09:57:14;7.73;;;1.90;;
25497;SDS011;13406;53.380;7.226;2023-04-25T09:59:53;7.80;;;1.50;;
25497;SDS011;13406;53.380;7.226;2023-04-25T10:02:24;7.73;;;1.50;;
25497;SDS011;13406;53.380;7.226;2023-04-25T10:04:52;3.70;;;1.37;;
25497;SDS011;13406;53.380;7.226;2023-04-25T10:07:23;7.17;;;1.50;;
25497;SDS011;13406;53.380;7.226;2023-04-25T10:09:52;6.97;;;1.90;;
25497;SDS011;13406;53.380;7.226;2023-04-25T10:12:29;6.70;;;1.83;;
25497;SDS011;13406;53.380;7.226;2023-04-25T10:14:56;5.60;;;1.67;;
25497;SDS011;13406;53.380;7.226;2023-04-25T10:17:23;5.63;;;1.53;;
25497;SDS011;13406;53.380;7.226;2023-04-25T10:19:48;8.13;;;2.10;;
25497;SDS011;13406;53.380;7.226;2023-04-25T10:22:16;4.70;;;1.53;;
25497;SDS011;13406;53.380;7.226;2023-04-25T10:24:46;5.37;;;1.20;;
25497;SDS011;13406;53.380;7.226;2023-04-25T10:27:12;9.83;;;1.50;;
25497;SDS011;13406;53.380;7.226;2023-04-25T10:29:38;7.13;;;1.40;;
25497;SDS011;13406;53.380;7.226;2023-04-25T10:32:03;7.87;;;1.50;;
25497;SDS011;13406;53.380;7.226;2023-04-25T10:34:39;5.97;;;1.70;;
25497;SDS011;13406;53.380;7.226;2023-04-25T10:37:05;5.57;;;1.40;;
25497;SDS011;13406;53.380;7.226;2023-04-25T10:39:33;5.83;;;1.70;;
25497;SDS011;13406;53.380;7.226;2023-04-25T10:41:59;6.53;;;1.37;;
25497;SDS011;13406;53.380;7.226;2023-04-25T10:44:30;4.80;;;1.53;;
25497;SDS011;13406;53.380;7.226;2023-04-25T10:46:57;10.13;;;2.03;;
25497;SDS011;13406;53.380;7.226;2023-04-25T10:54:42;4.40;;;1.30;;
25497;SDS011;13406;53.380;7.226;2023-04-25T11:00:02;5.93;;;1.60;;
25497;SDS011;13406;53.380;7.226;2023-04-25T11:02:36;7.73;;;2.23;;
25497;SDS011;13406;53.380;7.226;2023-04-25T11:05:23;6.73;;;1.60;;
25497;SDS011;13406;53.380;7.226;2023-04-25T11:07:52;12.90;;;2.30;;
25497;SDS011;13406;53.380;7.226;2023-04-25T11:10:26;8.97;;;1.60;;
25497;SDS011;13406;53.380;7.226;2023-04-25T11:12:56;8.90;;;1.63;;
25497;SDS011;13406;53.380;7.226;2023-04-25T11:15:22;7.57;;;1.80;;
25497;SDS011;13406;53.380;7.226;2023-04-25T11:17:50;8.83;;;2.07;;
25497;SDS011;13406;53.380;7.226;2023-04-25T11:20:17;6.10;;;1.60;;
25497;SDS011;13406;53.380;7.226;2023-04-25T11:22:44;6.00;;;1.93;;
25497;SDS011;13406;53.380;7.226;2023-04-25T11:25:11;4.10;;;1.40;;
25497;SDS011;13406;53.380;7.226;2023-04-25T11:27:54;6.60;;;1.33;;
25497;SDS011;13406;53.380;7.226;2023-04-25T11:30:23;6.57;;;1.20;;
25497;SDS011;13406;53.380;7.226;2023-04-25T11:32:50;6.27;;;1.80;;
25497;SDS011;13406;53.380;7.226;2023-04-25T11:35:17;5.30;;;1.57;;
25497;SDS011;13406;53.380;7.226;2023-04-25T11:37:43;6.37;;;1.50;;
25497;SDS011;13406;53.380;7.226;2023-04-25T11:40:09;3.80;;;1.40;;
25497;SDS011;13406;53.380;7.226;2023-04-25T11:42:39;10.53;;;2.27;;
25497;SDS011;13406;53.380;7.226;2023-04-25T11:45:09;4.33;;;1.50;;
25497;SDS011;13406;53.380;7.226;2023-04-25T11:47:35;7.77;;;1.47;;
25497;SDS011;13406;53.380;7.226;2023-04-25T11:50:02;6.60;;;1.80;;
25497;SDS011;13406;53.380;7.226;2023-04-25T11:52:36;2.47;;;1.27;;
25497;SDS011;13406;53.380;7.226;2023-04-25T11:55:06;5.53;;;1.27;;
25497;SDS011;13406;53.380;7.226;2023-04-25T11:57:38;3.47;;;1.30;;
25497;SDS011;13406;53.380;7.226;2023-04-25T12:00:12;8.37;;;1.50;;
25497;SDS011;13406;53.380;7.226;2023-04-25T12:02:41;4.07;;;1.43;;
25497;SDS011;13406;53.380;7.226;2023-04-25T12:05:07;4.73;;;1.70;;
25497;SDS011;13406;53.380;7.226;2023-04-25T12:07:33;5.07;;;1.60;;
25497;SDS011;13406;53.380;7.226;2023-04-25T12:10:03;4.50;;;1.30;;
25497;SDS011;13406;53.380;7.226;2023-04-25T12:12:33;4.30;;;1.00;;
25497;SDS011;13406;53.380;7.226;2023-04-25T12:15:09;6.27;;;1.53;;
25497;SDS011;13406;53.380;7.226;2023-04-25T12:17:36;4.27;;;1.00;;
25497;SDS011;13406;53.380;7.226;2023-04-25T12:20:07;2.47;;;1.00;;
25497;SDS011;13406;53.380;7.226;2023-04-25T12:22:34;6.47;;;1.60;;
25497;SDS011;13406;53.380;7.226;2023-04-25T12:25:01;2.63;;;1.00;;
25497;SDS011;13406;53.380;7.226;2023-04-25T12:27:30;6.17;;;1.13;;
25497;SDS011;13406;53.380;7.226;2023-04-25T12:29:56;4.80;;;1.10;;
25497;SDS011;13406;53.380;7.226;2023-04-25T12:32:22;7.30;;;1.50;;
25497;SDS011;13406;53.380;7.226;2023-04-25T12:34:48;4.47;;;1.10;;
25497;SDS011;13406;53.380;7.226;2023-04-25T12:37:14;3.73;;;1.00;;
25497;SDS011;13406;53.380;7.226;2023-04-25T12:39:40;8.53;;;1.67;;
25497;SDS011;13406;53.380;7.226;2023-04-25T12:42:05;5.27;;;1.57;;
25497;SDS011;13406;53.380;7.226;2023-04-25T12:44:33;6.00;;;1.80;;
25497;SDS011;13406;53.380;7.226;2023-04-25T12:46:58;5.83;;;1.53;;
25497;SDS011;13406;53.380;7.226;2023-04-25T12:49:24;5.50;;;1.30;;
25497;SDS011;13406;53.380;7.226;2023-04-25T12:51:50;6.30;;;1.47;;
25497;SDS011;13406;53.380;7.226;2023-04-25T12:54:16;6.53;;;1.70;;
25497;SDS011;13406;53.380;7.226;2023-04-25T12:56:42;4.30;;;1.43;;
25497;SDS011;13406;53.380;7.226;2023-04-25T12:59:07;10.10;;;1.50;;
25497;SDS011;13406;53.380;7.226;2023-04-25T13:01:34;6.60;;;2.10;;
25497;SDS011;13406;53.380;7.226;2023-04-25T13:03:59;8.07;;;1.60;;
25497;SDS011;13406;53.380;7.226;2023-04-25T13:06:25;6.50;;;2.23;;
25497;SDS011;13406;53.380;7.226;2023-04-25T13:08:51;9.10;;;2.13;;
25497;SDS011;13406;53.380;7.226;2023-04-25T13:11:16;6.47;;;1.77;;
25497;SDS011;13406;53.380;7.226;2023-04-25T13:13:42;6.00;;;1.57;;
25497;SDS011;13406;53.380;7.226;2023-04-25T13:16:08;6.70;;;1.47;;
25497;SDS011;13406;53.380;7.226;2023-04-25T13:18:34;5.60;;;1.60;;
25497;SDS011;13406;53.380;7.226;2023-04-25T13:21:00;5.60;;;1.70;;
25497;SDS011;13406;53.380;7.226;2023-04-25T13:23:26;5.53;;;1.40;;
25497;SDS011;13406;53.380;7.226;2023-04-25T13:25:52;3.73;;;1.43;;
25497;SDS011;13406;53.380;7.226;2023-04-25T13:28:18;4.87;;;1.63;;
25497;SDS011;13406;53.380;7.226;2023-04-25T13:30:43;4.67;;;1.20;;
25497;SDS011;13406;53.380;7.226;2023-04-25T13:33:09;10.17;;;2.10;;
25497;SDS011;13406;53.380;7.226;2023-04-25T13:35:35;7.53;;;1.70;;
25497;SDS011;13406;53.380;7.226;2023-04-25T13:38:02;6.83;;;1.57;;
25497;SDS011;13406;53.380;7.226;2023-04-25T13:40:27;6.00;;;1.70;;
25497;SDS011;13406;53.380;7.226;2023-04-25T13:42:53;10.00;;;1.90;;
25497;SDS011;13406;53.380;7.226;2023-04-25T13:45:19;6.77;;;1.80;;
25497;SDS011;13406;53.380;7.226;2023-04-25T13:47:45;9.90;;;1.93;;
25497;SDS011;13406;53.380;7.226;2023-04-25T13:50:11;5.37;;;1.70;;
25497;SDS011;13406;53.380;7.226;2023-04-25T13:52:37;3.57;;;1.30;;
25497;SDS011;13406;53.380;7.226;2023-04-25T13:55:02;7.00;;;1.50;;
25497;SDS011;13406;53.380;7.226;2023-04-25T13:57:30;13.07;;;2.87;;
25497;SDS011;13406;53.380;7.226;2023-04-25T13:59:56;6.37;;;1.90;;
25497;SDS011;13406;53.380;7.226;2023-04-25T14:02:21;7.43;;;1.70;;
25497;SDS011;13406;53.380;7.226;2023-04-25T14:04:47;5.57;;;2.13;;
25497;SDS011;13406;53.380;7.226;2023-04-25T14:07:13;8.73;;;1.70;;
25497;SDS011;13406;53.380;7.226;2023-04-25T14:09:41;5.43;;;1.33;;
25497;SDS011;13406;53.380;7.226;2023-04-25T14:12:06;5.60;;;1.60;;
25497;SDS011;13406;53.380;7.226;2023-04-25T14:14:32;5.50;;;1.60;;
25497;SDS011;13406;53.380;7.226;2023-04-25T14:16:57;2.90;;;1.60;;
25497;SDS011;13406;53.380;7.226;2023-04-25T14:19:23;6.83;;;1.30;;
25497;SDS011;13406;53.380;7.226;2023-04-25T14:21:48;10.77;;;1.97;;
25497;SDS011;13406;53.380;7.226;2023-04-25T14:24:14;8.63;;;1.73;;
25497;SDS011;13406;53.380;7.226;2023-04-25T14:26:39;7.87;;;1.70;;
25497;SDS011;13406;53.380;7.226;2023-04-25T14:29:06;7.67;;;1.90;;
25497;SDS011;13406;53.380;7.226;2023-04-25T14:31:32;13.30;;;2.20;;
25497;SDS011;13406;53.380;7.226;2023-04-25T14:33:58;7.20;;;1.77;;
25497;SDS011;13406;53.380;7.226;2023-04-25T14:36:23;6.13;;;1.70;;
25497;SDS011;13406;53.380;7.226;2023-04-25T14:38:49;8.07;;;1.73;;
25497;SDS011;13406;53.380;7.226;2023-04-25T14:41:15;5.97;;;1.20;;
25497;SDS011;13406;53.380;7.226;2023-04-25T14:43:40;4.87;;;1.27;;
25497;SDS011;13406;53.380;7.226;2023-04-25T14:46:06;7.30;;;1.77;;
25497;SDS011;13406;53.380;7.226;2023-04-25T14:48:32;7.67;;;1.40;;
25497;SDS011;13406;53.380;7.226;2023-04-25T14:50:58;7.73;;;1.70;;